sensor_id;sensor_type;location;lat;lon;timestamp;pressure;altitude;pressure_sealevel;temperature;humidity
69058;BME280;56128;37.534;-122.308;2023-06-14T00:01:48;101355.53;;;17.80;100.00
69058;BME280;56128;37.534;-122.308;2023-06-14T00:04:14;101349.56;;;17.76;100.00
69058;BME280;56128;37.534;-122.308;2023-06-14T00:06:45;101337.34;;;17.72;100.00
69058;BME280;56128;37.534;-122.308;2023-06-14T00:09:12;101344.91;;;17.68;100.00
69058;BME280;56128;37.534;-122.308;2023-06-14T00:11:40;101349.19;;;17.61;100.00
69058;BME280;56128;37.534;-122.308;2023-06-14T00:14:07;101344.97;;;17.49;100.00
69058;BME280;56128;37.534;-122.308;2023-06-14T00:16:34;101334.56;;;17.54;100.00
69058;BME280;56128;37.534;-122.308;2023-06-14T00:19:03;101335.66;;;17.33;100.00
69058;BME280;56128;37.534;-122.308;2023-06-14T00:21:30;101324.38;;;17.38;100.00
69058;BME280;56128;37.534;-122.308;2023-06-14T00:23:58;101326.38;;;17.36;100.00
69058;BME280;56128;37.534;-122.308;2023-06-14T00:26:25;101317.59;;;17.24;100.00
69058;BME280;56128;37.534;-122.308;2023-06-14T00:28:52;101328.72;;;17.11;100.00
69058;BME280;56128;37.534;-122.308;2023-06-14T00:31:18;101321.38;;;16.94;100.00
69058;BME280;56128;37.534;-122.308;2023-06-14T00:33:45;101302.16;;;16.87;100.00
69058;BME280;56128;37.534;-122.308;2023-06-14T00:36:11;101303.59;;;16.91;100.00
69058;BME280;56128;37.534;-122.308;2023-06-14T00:38:38;101299.59;;;16.95;100.00
69058;BME280;56128;37.534;-122.308;2023-06-14T00:41:04;101304.59;;;16.80;100.00
69058;BME280;56128;37.534;-122.308;2023-06-14T00:43:30;101301.59;;;16.83;100.00
69058;BME280;56128;37.534;-122.308;2023-06-14T00:45:57;101298.63;;;16.77;100.00
69058;BME280;56128;37.534;-122.308;2023-06-14T00:48:24;101302.16;;;16.77;100.00
69058;BME280;56128;37.534;-122.308;2023-06-14T00:50:52;101290.34;;;16.78;100.00
69058;BME280;56128;37.534;-122.308;2023-06-14T00:53:20;101288.38;;;16.70;100.00
69058;BME280;56128;37.534;-122.308;2023-06-14T00:55:48;101284.69;;;16.71;100.00
69058;BME280;56128;37.534;-122.308;2023-06-14T00:58:15;101277.84;;;16.67;100.00
69058;BME280;56128;37.534;-122.308;2023-06-14T01:00:42;101273.03;;;16.61;100.00
69058;BME280;56128;37.534;-122.308;2023-06-14T01:03:08;101280.56;;;16.67;100.00
69058;BME280;56128;37.534;-122.308;2023-06-14T01:05:38;101283.25;;;16.58;100.00
69058;BME280;56128;37.534;-122.308;2023-06-14T01:11:16;101275.88;;;16.40;100.00
69058;BME280;56128;37.534;-122.308;2023-06-14T01:13:46;101270.34;;;16.42;100.00
69058;BME280;56128;37.534;-122.308;2023-06-14T01:16:14;101263.66;;;16.46;100.00
69058;BME280;56128;37.534;-122.308;2023-06-14T01:18:41;101257.28;;;16.37;100.00
69058;BME280;56128;37.534;-122.308;2023-06-14T01:21:26;101251.03;;;16.27;100.00
69058;BME280;56128;37.534;-122.308;2023-06-14T01:23:54;101266.94;;;16.20;100.00
69058;BME280;56128;37.534;-122.308;2023-06-14T01:26:22;101261.53;;;16.20;100.00
69058;BME280;56128;37.534;-122.308;2023-06-14T01:28:50;101269.50;;;16.21;100.00
69058;BME280;56128;37.534;-122.308;2023-06-14T01:31:20;101268.22;;;16.16;100.00
69058;BME280;56128;37.534;-122.308;2023-06-14T01:33:50;101265.09;;;16.11;100.00
69058;BME280;56128;37.534;-122.308;2023-06-14T01:36:19;101256.25;;;16.09;100.00
69058;BME280;56128;37.534;-122.308;2023-06-14T01:38:48;101266.94;;;16.10;100.00
69058;BME280;56128;37.534;-122.308;2023-06-14T01:41:17;101277.41;;;15.94;100.00
69058;BME280;56128;37.534;-122.308;2023-06-14T01:43:45;101284.97;;;15.90;100.00
69058;BME280;56128;37.534;-122.308;2023-06-14T01:46:14;101272.47;;;15.89;100.00
69058;BME280;56128;37.534;-122.308;2023-06-14T01:48:42;101290.91;;;15.84;100.00
69058;BME280;56128;37.534;-122.308;2023-06-14T01:51:08;101307.34;;;15.81;100.00
69058;BME280;56128;37.534;-122.308;2023-06-14T01:53:34;101299.69;;;15.76;100.00
69058;BME280;56128;37.534;-122.308;2023-06-14T01:56:01;101291.97;;;15.71;100.00
69058;BME280;56128;37.534;-122.308;2023-06-14T01:58:29;101290.56;;;15.67;100.00
69058;BME280;56128;37.534;-122.308;2023-06-14T02:00:56;101299.19;;;15.61;100.00
69058;BME280;56128;37.534;-122.308;2023-06-14T02:03:23;101292.91;;;15.51;100.00
69058;BME280;56128;37.534;-122.308;2023-06-14T02:05:50;101297.16;;;15.44;100.00
69058;BME280;56128;37.534;-122.308;2023-06-14T02:08:19;101302.66;;;15.42;100.00
69058;BME280;56128;37.534;-122.308;2023-06-14T02:10:45;101302.06;;;15.38;100.00
69058;BME280;56128;37.534;-122.308;2023-06-14T02:13:12;101311.97;;;15.28;100.00
69058;BME280;56128;37.534;-122.308;2023-06-14T02:15:38;101300.19;;;15.29;100.00
69058;BME280;56128;37.534;-122.308;2023-06-14T02:18:05;101310.53;;;15.24;100.00
69058;BME280;56128;37.534;-122.308;2023-06-14T02:20:33;101302.66;;;15.11;100.00
69058;BME280;56128;37.534;-122.308;2023-06-14T02:23:00;101317.28;;;15.08;100.00
69058;BME280;56128;37.534;-122.308;2023-06-14T02:25:26;101315.09;;;15.02;100.00
69058;BME280;56128;37.534;-122.308;2023-06-14T02:27:56;101325.53;;;14.96;100.00
69058;BME280;56128;37.534;-122.308;2023-06-14T02:30:23;101334.28;;;14.88;100.00
69058;BME280;56128;37.534;-122.308;2023-06-14T02:32:50;101331.88;;;14.85;100.00
69058;BME280;56128;37.534;-122.308;2023-06-14T02:35:16;101340.63;;;14.77;100.00
69058;BME280;56128;37.534;-122.308;2023-06-14T02:37:43;101343.09;;;14.69;100.00
69058;BME280;56128;37.534;-122.308;2023-06-14T02:40:09;101345.28;;;14.64;100.00
69058;BME280;56128;37.534;-122.308;2023-06-14T02:42:36;101344.97;;;14.57;100.00
69058;BME280;56128;37.534;-122.308;2023-06-14T02:45:05;101360.09;;;14.58;100.00
69058;BME280;56128;37.534;-122.308;2023-06-14T02:47:31;101358.19;;;14.49;100.00
69058;BME280;56128;37.534;-122.308;2023-06-14T02:49:57;101360.41;;;14.43;100.00
69058;BME280;56128;37.534;-122.308;2023-06-14T02:52:23;101359.22;;;14.36;100.00
69058;BME280;56128;37.534;-122.308;2023-06-14T02:54:50;101353.09;;;14.34;100.00
69058;BME280;56128;37.534;-122.308;2023-06-14T02:57:17;101356.81;;;14.22;100.00
69058;BME280;56128;37.534;-122.308;2023-06-14T02:59:43;101360.03;;;14.16;100.00
69058;BME280;56128;37.534;-122.308;2023-06-14T03:02:11;101357.56;;;14.12;100.00
69058;BME280;56128;37.534;-122.308;2023-06-14T03:04:38;101349.78;;;13.98;100.00
69058;BME280;56128;37.534;-122.308;2023-06-14T03:07:05;101353.09;;;13.90;100.00
69058;BME280;56128;37.534;-122.308;2023-06-14T03:09:39;101347.34;;;13.84;100.00
69058;BME280;56128;37.534;-122.308;2023-06-14T03:12:06;101340.88;;;13.75;100.00
69058;BME280;56128;37.534;-122.308;2023-06-14T03:14:33;101344.06;;;13.69;100.00
69058;BME280;56128;37.534;-122.308;2023-06-14T03:17:02;101343.69;;;13.62;100.00
69058;BME280;56128;37.534;-122.308;2023-06-14T03:19:30;101341.38;;;13.57;100.00
69058;BME280;56128;37.534;-122.308;2023-06-14T03:21:57;101339.28;;;13.50;100.00
69058;BME280;56128;37.534;-122.308;2023-06-14T03:24:24;101333.56;;;13.43;100.00
69058;BME280;56128;37.534;-122.308;2023-06-14T03:26:53;101346.56;;;13.36;100.00
69058;BME280;56128;37.534;-122.308;2023-06-14T03:29:20;101346.97;;;13.31;100.00
69058;BME280;56128;37.534;-122.308;2023-06-14T03:32:00;101350.00;;;13.27;100.00
69058;BME280;56128;37.534;-122.308;2023-06-14T03:34:27;101342.28;;;13.22;100.00
69058;BME280;56128;37.534;-122.308;2023-06-14T03:36:53;101335.31;;;13.20;100.00
69058;BME280;56128;37.534;-122.308;2023-06-14T03:39:20;101329.09;;;13.19;100.00
69058;BME280;56128;37.534;-122.308;2023-06-14T03:41:46;101320.78;;;13.11;100.00
69058;BME280;56128;37.534;-122.308;2023-06-14T03:44:15;101328.00;;;13.10;100.00
69058;BME280;56128;37.534;-122.308;2023-06-14T03:46:43;101332.88;;;13.05;100.00
69058;BME280;56128;37.534;-122.308;2023-06-14T03:49:09;101340.19;;;13.03;100.00
69058;BME280;56128;37.534;-122.308;2023-06-14T03:51:36;101341.41;;;12.99;100.00
69058;BME280;56128;37.534;-122.308;2023-06-14T03:54:02;101342.59;;;12.95;100.00
69058;BME280;56128;37.534;-122.308;2023-06-14T03:56:29;101346.63;;;12.89;100.00
69058;BME280;56128;37.534;-122.308;2023-06-14T03:58:55;101364.69;;;12.87;100.00
69058;BME280;56128;37.534;-122.308;2023-06-14T04:01:21;101347.72;;;12.87;100.00
69058;BME280;56128;37.534;-122.308;2023-06-14T04:03:57;101356.13;;;12.82;100.00
69058;BME280;56128;37.534;-122.308;2023-06-14T04:06:24;101345.72;;;12.77;100.00
69058;BME280;56128;37.534;-122.308;2023-06-14T04:08:58;101354.88;;;12.75;100.00
69058;BME280;56128;37.534;-122.308;2023-06-14T04:11:29;101366.69;;;12.72;100.00
69058;BME280;56128;37.534;-122.308;2023-06-14T04:13:56;101368.75;;;12.69;100.00
69058;BME280;56128;37.534;-122.308;2023-06-14T04:16:22;101371.56;;;12.67;100.00
69058;BME280;56128;37.534;-122.308;2023-06-14T04:18:48;101371.06;;;12.62;100.00
69058;BME280;56128;37.534;-122.308;2023-06-14T04:21:17;101370.31;;;12.60;100.00
69058;BME280;56128;37.534;-122.308;2023-06-14T04:23:43;101376.56;;;12.60;100.00
69058;BME280;56128;37.534;-122.308;2023-06-14T04:26:10;101374.00;;;12.59;100.00
69058;BME280;56128;37.534;-122.308;2023-06-14T04:28:37;101381.41;;;12.55;100.00
69058;BME280;56128;37.534;-122.308;2023-06-14T04:31:07;101391.53;;;12.52;100.00
69058;BME280;56128;37.534;-122.308;2023-06-14T04:33:35;101387.13;;;12.50;100.00
69058;BME280;56128;37.534;-122.308;2023-06-14T04:36:10;101398.81;;;12.49;100.00
69058;BME280;56128;37.534;-122.308;2023-06-14T04:38:38;101397.34;;;12.45;100.00
69058;BME280;56128;37.534;-122.308;2023-06-14T04:41:04;101389.53;;;12.42;100.00
69058;BME280;56128;37.534;-122.308;2023-06-14T04:43:31;101387.06;;;12.39;100.00
69058;BME280;56128;37.534;-122.308;2023-06-14T04:46:04;101404.13;;;12.38;100.00
69058;BME280;56128;37.534;-122.308;2023-06-14T04:48:31;101401.06;;;12.31;100.00
69058;BME280;56128;37.534;-122.308;2023-06-14T04:50:58;101412.63;;;12.32;100.00
69058;BME280;56128;37.534;-122.308;2023-06-14T04:53:24;101422.53;;;12.31;100.00
69058;BME280;56128;37.534;-122.308;2023-06-14T04:55:54;101427.00;;;12.31;100.00
69058;BME280;56128;37.534;-122.308;2023-06-14T04:58:20;101432.63;;;12.28;100.00
69058;BME280;56128;37.534;-122.308;2023-06-14T05:00:47;101423.81;;;12.26;100.00
69058;BME280;56128;37.534;-122.308;2023-06-14T05:03:13;101421.38;;;12.23;100.00
69058;BME280;56128;37.534;-122.308;2023-06-14T05:05:42;101418.81;;;12.21;100.00
69058;BME280;56128;37.534;-122.308;2023-06-14T05:08:08;101412.69;;;12.19;100.00
69058;BME280;56128;37.534;-122.308;2023-06-14T05:10:35;101404.75;;;12.17;100.00
69058;BME280;56128;37.534;-122.308;2023-06-14T05:13:02;101413.75;;;12.16;100.00
69058;BME280;56128;37.534;-122.308;2023-06-14T05:15:29;101419.25;;;12.15;100.00
69058;BME280;56128;37.534;-122.308;2023-06-14T05:17:55;101410.31;;;12.14;100.00
69058;BME280;56128;37.534;-122.308;2023-06-14T05:20:23;101409.59;;;12.12;100.00
69058;BME280;56128;37.534;-122.308;2023-06-14T05:22:53;101419.56;;;12.10;100.00
69058;BME280;56128;37.534;-122.308;2023-06-14T05:25:20;101407.13;;;12.09;100.00
69058;BME280;56128;37.534;-122.308;2023-06-14T05:27:47;101402.00;;;12.06;100.00
69058;BME280;56128;37.534;-122.308;2023-06-14T05:30:15;101404.66;;;12.06;100.00
69058;BME280;56128;37.534;-122.308;2023-06-14T05:32:41;101411.84;;;12.06;100.00
69058;BME280;56128;37.534;-122.308;2023-06-14T05:35:08;101409.28;;;12.04;100.00
69058;BME280;56128;37.534;-122.308;2023-06-14T05:37:34;101402.19;;;12.03;100.00
69058;BME280;56128;37.534;-122.308;2023-06-14T05:40:00;101397.59;;;12.05;100.00
69058;BME280;56128;37.534;-122.308;2023-06-14T05:42:27;101386.22;;;12.01;100.00
69058;BME280;56128;37.534;-122.308;2023-06-14T05:44:53;101383.03;;;11.96;100.00
69058;BME280;56128;37.534;-122.308;2023-06-14T05:47:19;101386.53;;;11.97;100.00
69058;BME280;56128;37.534;-122.308;2023-06-14T05:49:45;101390.22;;;11.96;100.00
69058;BME280;56128;37.534;-122.308;2023-06-14T05:52:11;101395.75;;;11.93;100.00
69058;BME280;56128;37.534;-122.308;2023-06-14T05:54:38;101392.22;;;11.92;100.00
69058;BME280;56128;37.534;-122.308;2023-06-14T05:57:05;101389.75;;;11.89;100.00
69058;BME280;56128;37.534;-122.308;2023-06-14T05:59:32;101386.22;;;11.89;100.00
69058;BME280;56128;37.534;-122.308;2023-06-14T06:01:58;101382.78;;;11.86;100.00
69058;BME280;56128;37.534;-122.308;2023-06-14T06:04:24;101373.97;;;11.84;100.00
69058;BME280;56128;37.534;-122.308;2023-06-14T06:06:51;101382.91;;;11.85;100.00
69058;BME280;56128;37.534;-122.308;2023-06-14T06:09:17;101390.19;;;11.83;100.00
69058;BME280;56128;37.534;-122.308;2023-06-14T06:11:44;101385.78;;;11.82;100.00
69058;BME280;56128;37.534;-122.308;2023-06-14T06:14:11;101377.22;;;11.77;100.00
69058;BME280;56128;37.534;-122.308;2023-06-14T06:16:37;101364.69;;;11.77;100.00
69058;BME280;56128;37.534;-122.308;2023-06-14T06:19:03;101371.78;;;11.78;100.00
69058;BME280;56128;37.534;-122.308;2023-06-14T06:21:29;101377.97;;;11.79;100.00
69058;BME280;56128;37.534;-122.308;2023-06-14T06:23:55;101379.91;;;11.77;100.00
69058;BME280;56128;37.534;-122.308;2023-06-14T06:26:22;101366.84;;;11.72;100.00
69058;BME280;56128;37.534;-122.308;2023-06-14T06:28:48;101362.97;;;11.76;100.00
69058;BME280;56128;37.534;-122.308;2023-06-14T06:31:15;101358.38;;;11.78;100.00
69058;BME280;56128;37.534;-122.308;2023-06-14T06:33:41;101344.97;;;11.78;100.00
69058;BME280;56128;37.534;-122.308;2023-06-14T06:36:07;101339.59;;;11.78;100.00
69058;BME280;56128;37.534;-122.308;2023-06-14T06:38:34;101338.53;;;11.81;100.00
69058;BME280;56128;37.534;-122.308;2023-06-14T06:41:00;101344.97;;;11.78;100.00
69058;BME280;56128;37.534;-122.308;2023-06-14T06:43:26;101347.28;;;11.83;100.00
69058;BME280;56128;37.534;-122.308;2023-06-14T06:45:53;101334.63;;;11.85;100.00
69058;BME280;56128;37.534;-122.308;2023-06-14T06:48:19;101341.59;;;11.88;100.00
69058;BME280;56128;37.534;-122.308;2023-06-14T06:50:45;101338.06;;;11.87;100.00
69058;BME280;56128;37.534;-122.308;2023-06-14T06:53:11;101345.03;;;11.90;100.00
69058;BME280;56128;37.534;-122.308;2023-06-14T06:55:58;101350.03;;;11.94;100.00
69058;BME280;56128;37.534;-122.308;2023-06-14T06:58:24;101345.56;;;11.95;100.00
69058;BME280;56128;37.534;-122.308;2023-06-14T07:00:50;101343.84;;;11.94;100.00
69058;BME280;56128;37.534;-122.308;2023-06-14T07:03:16;101366.69;;;11.99;100.00
69058;BME280;56128;37.534;-122.308;2023-06-14T07:05:43;101372.81;;;12.01;100.00
69058;BME280;56128;37.534;-122.308;2023-06-14T07:08:09;101376.13;;;12.05;100.00
69058;BME280;56128;37.534;-122.308;2023-06-14T07:10:35;101363.34;;;12.09;100.00
69058;BME280;56128;37.534;-122.308;2023-06-14T07:13:03;101368.38;;;12.13;100.00
69058;BME280;56128;37.534;-122.308;2023-06-14T07:15:29;101361.06;;;12.15;100.00
69058;BME280;56128;37.534;-122.308;2023-06-14T07:17:55;101360.84;;;12.18;100.00
69058;BME280;56128;37.534;-122.308;2023-06-14T07:20:25;101357.09;;;12.21;100.00
69058;BME280;56128;37.534;-122.308;2023-06-14T07:22:51;101347.31;;;12.20;100.00
69058;BME280;56128;37.534;-122.308;2023-06-14T07:25:17;101355.03;;;12.25;100.00
69058;BME280;56128;37.534;-122.308;2023-06-14T07:27:46;101362.00;;;12.27;100.00
69058;BME280;56128;37.534;-122.308;2023-06-14T07:30:12;101355.66;;;12.28;100.00
69058;BME280;56128;37.534;-122.308;2023-06-14T07:32:38;101368.97;;;12.30;100.00
69058;BME280;56128;37.534;-122.308;2023-06-14T07:35:05;101375.06;;;12.32;100.00
69058;BME280;56128;37.534;-122.308;2023-06-14T07:37:32;101375.81;;;12.34;100.00
69058;BME280;56128;37.534;-122.308;2023-06-14T07:39:58;101360.56;;;12.34;100.00
69058;BME280;56128;37.534;-122.308;2023-06-14T07:42:24;101358.50;;;12.38;100.00
69058;BME280;56128;37.534;-122.308;2023-06-14T07:44:51;101346.81;;;12.39;100.00
69058;BME280;56128;37.534;-122.308;2023-06-14T07:47:18;101360.22;;;12.39;100.00
69058;BME280;56128;37.534;-122.308;2023-06-14T07:49:44;101345.22;;;12.37;100.00
69058;BME280;56128;37.534;-122.308;2023-06-14T07:52:11;101350.34;;;12.40;100.00
69058;BME280;56128;37.534;-122.308;2023-06-14T07:54:37;101348.66;;;12.39;100.00
69058;BME280;56128;37.534;-122.308;2023-06-14T07:57:03;101345.09;;;12.38;100.00
69058;BME280;56128;37.534;-122.308;2023-06-14T07:59:30;101347.56;;;12.41;100.00
69058;BME280;56128;37.534;-122.308;2023-06-14T08:01:56;101344.88;;;12.41;100.00
69058;BME280;56128;37.534;-122.308;2023-06-14T08:04:22;101335.94;;;12.41;100.00
69058;BME280;56128;37.534;-122.308;2023-06-14T08:06:50;101328.88;;;12.40;100.00
69058;BME280;56128;37.534;-122.308;2023-06-14T08:09:17;101322.53;;;12.41;100.00
69058;BME280;56128;37.534;-122.308;2023-06-14T08:11:43;101315.56;;;12.38;100.00
69058;BME280;56128;37.534;-122.308;2023-06-14T08:14:09;101309.22;;;12.39;100.00
69058;BME280;56128;37.534;-122.308;2023-06-14T08:16:35;101308.28;;;12.40;100.00
69058;BME280;56128;37.534;-122.308;2023-06-14T08:19:01;101308.28;;;12.40;100.00
69058;BME280;56128;37.534;-122.308;2023-06-14T08:21:28;101294.84;;;12.40;100.00
69058;BME280;56128;37.534;-122.308;2023-06-14T08:23:58;101287.75;;;12.39;100.00
69058;BME280;56128;37.534;-122.308;2023-06-14T08:26:25;101291.66;;;12.35;100.00
69058;BME280;56128;37.534;-122.308;2023-06-14T08:28:55;101289.19;;;12.32;100.00
69058;BME280;56128;37.534;-122.308;2023-06-14T08:31:22;101293.72;;;12.31;100.00
69058;BME280;56128;37.534;-122.308;2023-06-14T08:33:48;101307.00;;;12.33;100.00
69058;BME280;56128;37.534;-122.308;2023-06-14T08:36:14;101314.84;;;12.36;100.00
69058;BME280;56128;37.534;-122.308;2023-06-14T08:38:40;101314.94;;;12.34;100.00
69058;BME280;56128;37.534;-122.308;2023-06-14T08:41:08;101322.91;;;12.36;100.00
69058;BME280;56128;37.534;-122.308;2023-06-14T08:43:39;101330.31;;;12.32;100.00
69058;BME280;56128;37.534;-122.308;2023-06-14T08:46:06;101335.78;;;12.31;100.00
69058;BME280;56128;37.534;-122.308;2023-06-14T08:48:36;101322.28;;;12.32;100.00
69058;BME280;56128;37.534;-122.308;2023-06-14T08:51:04;101326.03;;;12.30;100.00
69058;BME280;56128;37.534;-122.308;2023-06-14T08:53:31;101324.06;;;12.32;100.00
69058;BME280;56128;37.534;-122.308;2023-06-14T08:56:01;101315.41;;;12.28;100.00
69058;BME280;56128;37.534;-122.308;2023-06-14T08:58:28;101321.63;;;12.29;100.00
69058;BME280;56128;37.534;-122.308;2023-06-14T09:01:01;101312.63;;;12.30;100.00
69058;BME280;56128;37.534;-122.308;2023-06-14T09:03:27;101311.63;;;12.31;100.00
69058;BME280;56128;37.534;-122.308;2023-06-14T09:05:59;101321.50;;;12.30;100.00
69058;BME280;56128;37.534;-122.308;2023-06-14T09:08:29;101314.56;;;12.28;100.00
69058;BME280;56128;37.534;-122.308;2023-06-14T09:10:57;101311.13;;;12.26;100.00
69058;BME280;56128;37.534;-122.308;2023-06-14T09:13:23;101308.16;;;12.17;100.00
69058;BME280;56128;37.534;-122.308;2023-06-14T09:15:49;101314.16;;;12.21;100.00
69058;BME280;56128;37.534;-122.308;2023-06-14T09:18:16;101301.09;;;12.16;100.00
69058;BME280;56128;37.534;-122.308;2023-06-14T09:20:42;101301.94;;;12.17;100.00
69058;BME280;56128;37.534;-122.308;2023-06-14T09:23:09;101298.41;;;12.16;100.00
69058;BME280;56128;37.534;-122.308;2023-06-14T09:25:46;101302.16;;;12.14;100.00
69058;BME280;56128;37.534;-122.308;2023-06-14T09:28:12;101299.50;;;12.14;100.00
69058;BME280;56128;37.534;-122.308;2023-06-14T09:30:38;101302.16;;;12.14;100.00
69058;BME280;56128;37.534;-122.308;2023-06-14T09:33:05;101308.50;;;12.13;100.00
69058;BME280;56128;37.534;-122.308;2023-06-14T09:35:32;101304.97;;;12.12;100.00
69058;BME280;56128;37.534;-122.308;2023-06-14T09:37:59;101301.28;;;12.13;100.00
69058;BME280;56128;37.534;-122.308;2023-06-14T09:40:26;101296.06;;;12.12;100.00
69058;BME280;56128;37.534;-122.308;2023-06-14T09:42:52;101280.53;;;12.04;100.00
69058;BME280;56128;37.534;-122.308;2023-06-14T09:45:20;101296.16;;;12.10;100.00
69058;BME280;56128;37.534;-122.308;2023-06-14T09:47:49;101277.97;;;12.02;100.00
69058;BME280;56128;37.534;-122.308;2023-06-14T09:50:15;101285.69;;;12.07;100.00
69058;BME280;56128;37.534;-122.308;2023-06-14T09:52:44;101283.72;;;12.09;100.00
69058;BME280;56128;37.534;-122.308;2023-06-14T09:55:12;101277.00;;;12.04;100.00
69058;BME280;56128;37.534;-122.308;2023-06-14T09:57:41;101275.16;;;12.04;100.00
69058;BME280;56128;37.534;-122.308;2023-06-14T10:00:09;101278.81;;;12.03;100.00
69058;BME280;56128;37.534;-122.308;2023-06-14T10:02:37;101290.28;;;12.05;100.00
69058;BME280;56128;37.534;-122.308;2023-06-14T10:05:08;101292.00;;;12.06;100.00
69058;BME280;56128;37.534;-122.308;2023-06-14T10:08:04;101299.31;;;12.04;100.00
69058;BME280;56128;37.534;-122.308;2023-06-14T10:10:34;101297.47;;;12.05;100.00
69058;BME280;56128;37.534;-122.308;2023-06-14T10:13:00;101292.22;;;12.03;100.00
69058;BME280;56128;37.534;-122.308;2023-06-14T10:18:31;101294.06;;;12.02;100.00
69058;BME280;56128;37.534;-122.308;2023-06-14T10:23:50;101312.84;;;12.02;100.00
69058;BME280;56128;37.534;-122.308;2023-06-14T10:26:22;101301.03;;;12.05;100.00
69058;BME280;56128;37.534;-122.308;2023-06-14T10:29:10;101284.41;;;12.00;100.00
69058;BME280;56128;37.534;-122.308;2023-06-14T10:31:48;101293.09;;;12.04;100.00
69058;BME280;56128;37.534;-122.308;2023-06-14T10:39:42;101302.50;;;12.09;100.00
69058;BME280;56128;37.534;-122.308;2023-06-14T10:42:09;101292.09;;;12.05;100.00
69058;BME280;56128;37.534;-122.308;2023-06-14T10:44:43;101313.22;;;12.09;100.00
69058;BME280;56128;37.534;-122.308;2023-06-14T10:47:32;101318.59;;;12.09;100.00
69058;BME280;56128;37.534;-122.308;2023-06-14T10:50:08;101308.00;;;12.08;100.00
69058;BME280;56128;37.534;-122.308;2023-06-14T10:52:39;101307.22;;;12.06;100.00
69058;BME280;56128;37.534;-122.308;2023-06-14T10:55:17;101314.66;;;12.02;100.00
69058;BME280;56128;37.534;-122.308;2023-06-14T10:57:54;101311.44;;;11.97;100.00
69058;BME280;56128;37.534;-122.308;2023-06-14T11:00:33;101304.56;;;11.93;100.00
69058;BME280;56128;37.534;-122.308;2023-06-14T11:03:36;101314.47;;;11.92;100.00
69058;BME280;56128;37.534;-122.308;2023-06-14T11:06:15;101310.91;;;11.92;100.00
69058;BME280;56128;37.534;-122.308;2023-06-14T11:11:42;101289.56;;;11.90;100.00
69058;BME280;56128;37.534;-122.308;2023-06-14T11:14:10;101287.72;;;11.91;100.00
69058;BME280;56128;37.534;-122.308;2023-06-14T11:16:36;101293.97;;;11.91;100.00
69058;BME280;56128;37.534;-122.308;2023-06-14T11:19:02;101282.50;;;11.89;100.00
69058;BME280;56128;37.534;-122.308;2023-06-14T11:21:29;101276.50;;;11.85;100.00
69058;BME280;56128;37.534;-122.308;2023-06-14T11:23:57;101290.53;;;11.89;100.00
69058;BME280;56128;37.534;-122.308;2023-06-14T11:26:30;101279.81;;;11.89;100.00
69058;BME280;56128;37.534;-122.308;2023-06-14T11:28:58;101276.50;;;11.85;100.00
69058;BME280;56128;37.534;-122.308;2023-06-14T11:31:26;101269.41;;;11.84;100.00
69058;BME280;56128;37.534;-122.308;2023-06-14T11:33:59;101266.13;;;11.81;100.00
69058;BME280;56128;37.534;-122.308;2023-06-14T11:36:30;101255.50;;;11.79;100.00
69058;BME280;56128;37.534;-122.308;2023-06-14T11:39:04;101259.25;;;11.77;100.00
69058;BME280;56128;37.534;-122.308;2023-06-14T11:41:44;101257.66;;;11.74;100.00
69058;BME280;56128;37.534;-122.308;2023-06-14T11:44:11;101259.38;;;11.75;100.00
69058;BME280;56128;37.534;-122.308;2023-06-14T11:46:38;101256.69;;;11.75;100.00
69058;BME280;56128;37.534;-122.308;2023-06-14T11:49:06;101257.66;;;11.74;100.00
69058;BME280;56128;37.534;-122.308;2023-06-14T11:51:33;101254.13;;;11.74;100.00
69058;BME280;56128;37.534;-122.308;2023-06-14T11:54:03;101245.22;;;11.73;100.00
69058;BME280;56128;37.534;-122.308;2023-06-14T11:56:33;101237.94;;;11.75;100.00
69058;BME280;56128;37.534;-122.308;2023-06-14T11:58:59;101237.94;;;11.75;100.00
69058;BME280;56128;37.534;-122.308;2023-06-14T12:01:26;101234.28;;;11.76;100.00
69058;BME280;56128;37.534;-122.308;2023-06-14T12:03:54;101231.81;;;11.73;100.00
69058;BME280;56128;37.534;-122.308;2023-06-14T12:06:28;101231.81;;;11.73;100.00
69058;BME280;56128;37.534;-122.308;2023-06-14T12:08:57;101220.25;;;11.73;100.00
69058;BME280;56128;37.534;-122.308;2023-06-14T12:11:27;101221.97;;;11.74;100.00
69058;BME280;56128;37.534;-122.308;2023-06-14T12:13:54;101222.94;;;11.73;100.00
69058;BME280;56128;37.534;-122.308;2023-06-14T12:16:20;101223.69;;;11.75;100.00
69058;BME280;56128;37.534;-122.308;2023-06-14T12:18:47;101225.28;;;11.77;100.00
69058;BME280;56128;37.534;-122.308;2023-06-14T12:21:13;101238.56;;;11.79;100.00
69058;BME280;56128;37.534;-122.308;2023-06-14T12:23:46;101236.63;;;11.81;100.00
69058;BME280;56128;37.534;-122.308;2023-06-14T12:26:18;101247.88;;;11.86;100.00
69058;BME280;56128;37.534;-122.308;2023-06-14T12:28:45;101253.97;;;11.88;100.00
69058;BME280;56128;37.534;-122.308;2023-06-14T12:31:14;101246.53;;;11.92;100.00
69058;BME280;56128;37.534;-122.308;2023-06-14T12:33:42;101246.53;;;11.92;100.00